sensor_id;sensor_type;location;lat;lon;timestamp;temperature;humidity
4759;DHT22;2393;50.560;12.636;2023-07-29T00:01:10;18.70;99.90
4759;DHT22;2393;50.560;12.636;2023-07-29T00:03:38;18.70;99.90
4759;DHT22;2393;50.560;12.636;2023-07-29T00:06:06;18.70;99.90
4759;DHT22;2393;50.560;12.636;2023-07-29T00:08:34;18.70;99.90
4759;DHT22;2393;50.560;12.636;2023-07-29T00:11:03;18.70;99.90
4759;DHT22;2393;50.560;12.636;2023-07-29T00:13:31;18.70;99.90
4759;DHT22;2393;50.560;12.636;2023-07-29T00:16:00;18.70;99.90
4759;DHT22;2393;50.560;12.636;2023-07-29T00:18:29;18.70;99.90
4759;DHT22;2393;50.560;12.636;2023-07-29T00:20:58;18.70;99.90
4759;DHT22;2393;50.560;12.636;2023-07-29T00:23:27;18.70;99.90
4759;DHT22;2393;50.560;12.636;2023-07-29T00:25:55;18.70;99.90
4759;DHT22;2393;50.560;12.636;2023-07-29T00:28:23;18.70;99.90
4759;DHT22;2393;50.560;12.636;2023-07-29T00:30:52;18.70;99.90
4759;DHT22;2393;50.560;12.636;2023-07-29T00:33:21;18.70;99.90
4759;DHT22;2393;50.560;12.636;2023-07-29T00:35:49;18.70;99.90
4759;DHT22;2393;50.560;12.636;2023-07-29T00:38:18;18.60;99.90
4759;DHT22;2393;50.560;12.636;2023-07-29T00:40:46;18.60;99.90
4759;DHT22;2393;50.560;12.636;2023-07-29T00:43:15;18.60;99.90
4759;DHT22;2393;50.560;12.636;2023-07-29T00:45:44;18.60;99.90
4759;DHT22;2393;50.560;12.636;2023-07-29T00:48:13;18.50;99.90
4759;DHT22;2393;50.560;12.636;2023-07-29T00:50:43;18.40;99.90
4759;DHT22;2393;50.560;12.636;2023-07-29T00:53:12;18.40;99.90
4759;DHT22;2393;50.560;12.636;2023-07-29T00:55:40;18.40;99.90
4759;DHT22;2393;50.560;12.636;2023-07-29T00:58:09;18.30;99.90
4759;DHT22;2393;50.560;12.636;2023-07-29T01:00:37;18.30;99.90
4759;DHT22;2393;50.560;12.636;2023-07-29T01:03:06;18.20;99.90
4759;DHT22;2393;50.560;12.636;2023-07-29T01:05:45;18.20;99.90
4759;DHT22;2393;50.560;12.636;2023-07-29T01:08:27;18.20;99.90
4759;DHT22;2393;50.560;12.636;2023-07-29T01:11:17;18.20;99.90
4759;DHT22;2393;50.560;12.636;2023-07-29T01:13:54;18.20;99.90
4759;DHT22;2393;50.560;12.636;2023-07-29T01:16:29;18.10;99.90
4759;DHT22;2393;50.560;12.636;2023-07-29T01:19:00;18.10;99.90
4759;DHT22;2393;50.560;12.636;2023-07-29T01:21:33;18.10;99.90
4759;DHT22;2393;50.560;12.636;2023-07-29T01:24:04;18.10;99.90
4759;DHT22;2393;50.560;12.636;2023-07-29T01:26:32;18.10;99.90
4759;DHT22;2393;50.560;12.636;2023-07-29T01:29:05;18.10;99.90
4759;DHT22;2393;50.560;12.636;2023-07-29T01:31:35;18.10;99.90
4759;DHT22;2393;50.560;12.636;2023-07-29T01:34:09;18.10;99.90
4759;DHT22;2393;50.560;12.636;2023-07-29T01:36:42;18.10;99.90
4759;DHT22;2393;50.560;12.636;2023-07-29T01:39:17;18.10;99.90
4759;DHT22;2393;50.560;12.636;2023-07-29T01:41:46;18.20;99.90
4759;DHT22;2393;50.560;12.636;2023-07-29T01:44:16;18.10;99.90
4759;DHT22;2393;50.560;12.636;2023-07-29T01:46:44;18.20;99.90
4759;DHT22;2393;50.560;12.636;2023-07-29T01:49:13;18.20;99.90
4759;DHT22;2393;50.560;12.636;2023-07-29T01:51:41;18.20;99.90
4759;DHT22;2393;50.560;12.636;2023-07-29T01:54:11;18.20;99.90
4759;DHT22;2393;50.560;12.636;2023-07-29T01:56:40;18.20;99.90
4759;DHT22;2393;50.560;12.636;2023-07-29T01:59:12;18.20;99.90
4759;DHT22;2393;50.560;12.636;2023-07-29T02:01:43;18.20;99.90
4759;DHT22;2393;50.560;12.636;2023-07-29T02:04:13;18.20;99.90
4759;DHT22;2393;50.560;12.636;2023-07-29T02:06:41;18.20;99.90
4759;DHT22;2393;50.560;12.636;2023-07-29T02:09:10;18.10;99.90
4759;DHT22;2393;50.560;12.636;2023-07-29T02:11:40;18.10;99.90
4759;DHT22;2393;50.560;12.636;2023-07-29T02:14:08;18.10;99.90
4759;DHT22;2393;50.560;12.636;2023-07-29T02:16:36;18.10;99.90
4759;DHT22;2393;50.560;12.636;2023-07-29T02:19:06;18.10;99.90
4759;DHT22;2393;50.560;12.636;2023-07-29T02:21:34;18.10;99.90
4759;DHT22;2393;50.560;12.636;2023-07-29T02:24:03;18.10;99.90
4759;DHT22;2393;50.560;12.636;2023-07-29T02:26:32;18.10;99.90
4759;DHT22;2393;50.560;12.636;2023-07-29T02:29:02;18.20;99.90
4759;DHT22;2393;50.560;12.636;2023-07-29T02:31:31;18.20;99.90
4759;DHT22;2393;50.560;12.636;2023-07-29T02:33:59;18.20;99.90
4759;DHT22;2393;50.560;12.636;2023-07-29T02:36:27;18.20;99.90
4759;DHT22;2393;50.560;12.636;2023-07-29T02:38:56;18.20;99.90
4759;DHT22;2393;50.560;12.636;2023-07-29T02:41:25;18.20;99.90
4759;DHT22;2393;50.560;12.636;2023-07-29T02:43:53;18.30;99.90
4759;DHT22;2393;50.560;12.636;2023-07-29T02:46:22;18.30;99.90
4759;DHT22;2393;50.560;12.636;2023-07-29T02:48:51;18.30;99.90
4759;DHT22;2393;50.560;12.636;2023-07-29T02:51:19;18.30;99.90
4759;DHT22;2393;50.560;12.636;2023-07-29T02:53:47;18.40;99.90
4759;DHT22;2393;50.560;12.636;2023-07-29T02:56:16;18.30;99.90
4759;DHT22;2393;50.560;12.636;2023-07-29T02:58:44;18.40;99.90
4759;DHT22;2393;50.560;12.636;2023-07-29T03:01:12;18.40;99.90
4759;DHT22;2393;50.560;12.636;2023-07-29T03:03:42;18.40;99.90
4759;DHT22;2393;50.560;12.636;2023-07-29T03:06:13;18.40;99.90
4759;DHT22;2393;50.560;12.636;2023-07-29T03:08:41;18.50;99.90
4759;DHT22;2393;50.560;12.636;2023-07-29T03:11:11;18.40;99.90
4759;DHT22;2393;50.560;12.636;2023-07-29T03:13:39;18.40;99.90
4759;DHT22;2393;50.560;12.636;2023-07-29T03:16:09;18.50;99.90
4759;DHT22;2393;50.560;12.636;2023-07-29T03:18:43;18.50;99.90
4759;DHT22;2393;50.560;12.636;2023-07-29T03:21:11;18.40;99.90
4759;DHT22;2393;50.560;12.636;2023-07-29T03:23:40;18.40;99.90
4759;DHT22;2393;50.560;12.636;2023-07-29T03:26:08;18.40;99.90
4759;DHT22;2393;50.560;12.636;2023-07-29T03:28:41;18.40;99.90
4759;DHT22;2393;50.560;12.636;2023-07-29T03:31:11;18.40;99.90
4759;DHT22;2393;50.560;12.636;2023-07-29T03:33:39;18.40;99.90
4759;DHT22;2393;50.560;12.636;2023-07-29T03:36:08;18.40;99.90
4759;DHT22;2393;50.560;12.636;2023-07-29T03:38:37;18.40;99.90
4759;DHT22;2393;50.560;12.636;2023-07-29T03:41:08;18.40;99.90
4759;DHT22;2393;50.560;12.636;2023-07-29T03:43:37;18.50;99.90
4759;DHT22;2393;50.560;12.636;2023-07-29T03:46:05;18.40;99.90
4759;DHT22;2393;50.560;12.636;2023-07-29T03:48:36;18.50;99.90
4759;DHT22;2393;50.560;12.636;2023-07-29T03:51:05;18.40;99.90
4759;DHT22;2393;50.560;12.636;2023-07-29T03:53:34;18.40;99.90
4759;DHT22;2393;50.560;12.636;2023-07-29T03:56:03;18.40;99.90
4759;DHT22;2393;50.560;12.636;2023-07-29T03:58:31;18.40;99.90
4759;DHT22;2393;50.560;12.636;2023-07-29T04:00:59;18.40;99.90
4759;DHT22;2393;50.560;12.636;2023-07-29T04:03:27;18.40;99.90
4759;DHT22;2393;50.560;12.636;2023-07-29T04:05:56;18.40;99.90
4759;DHT22;2393;50.560;12.636;2023-07-29T04:08:24;18.40;99.90
4759;DHT22;2393;50.560;12.636;2023-07-29T04:10:54;18.40;99.90
4759;DHT22;2393;50.560;12.636;2023-07-29T04:13:22;18.40;99.90
4759;DHT22;2393;50.560;12.636;2023-07-29T04:15:50;18.40;99.90
4759;DHT22;2393;50.560;12.636;2023-07-29T04:18:19;18.50;99.90
4759;DHT22;2393;50.560;12.636;2023-07-29T04:20:48;18.50;99.90
4759;DHT22;2393;50.560;12.636;2023-07-29T04:23:16;18.50;99.90
4759;DHT22;2393;50.560;12.636;2023-07-29T04:25:44;18.50;99.90
4759;DHT22;2393;50.560;12.636;2023-07-29T04:28:13;18.50;99.90
4759;DHT22;2393;50.560;12.636;2023-07-29T04:30:42;18.50;99.90
4759;DHT22;2393;50.560;12.636;2023-07-29T04:33:10;18.60;99.90
4759;DHT22;2393;50.560;12.636;2023-07-29T04:35:38;18.50;99.90
4759;DHT22;2393;50.560;12.636;2023-07-29T04:38:10;18.60;99.90
4759;DHT22;2393;50.560;12.636;2023-07-29T04:40:38;18.50;99.90
4759;DHT22;2393;50.560;12.636;2023-07-29T04:43:06;18.50;99.90
4759;DHT22;2393;50.560;12.636;2023-07-29T04:45:36;18.60;99.90
4759;DHT22;2393;50.560;12.636;2023-07-29T04:48:04;18.60;99.90
4759;DHT22;2393;50.560;12.636;2023-07-29T04:50:32;18.70;99.90
4759;DHT22;2393;50.560;12.636;2023-07-29T04:53:00;18.70;99.90
4759;DHT22;2393;50.560;12.636;2023-07-29T04:55:28;18.80;99.90
4759;DHT22;2393;50.560;12.636;2023-07-29T04:57:56;18.80;99.90
4759;DHT22;2393;50.560;12.636;2023-07-29T05:00:24;18.90;99.90
4759;DHT22;2393;50.560;12.636;2023-07-29T05:02:54;18.90;99.90
4759;DHT22;2393;50.560;12.636;2023-07-29T05:05:22;19.00;99.90
4759;DHT22;2393;50.560;12.636;2023-07-29T05:07:51;19.10;99.90
4759;DHT22;2393;50.560;12.636;2023-07-29T05:10:19;19.20;99.90
4759;DHT22;2393;50.560;12.636;2023-07-29T05:12:47;19.30;99.90
4759;DHT22;2393;50.560;12.636;2023-07-29T05:15:15;19.40;99.90
4759;DHT22;2393;50.560;12.636;2023-07-29T05:17:45;19.50;99.90
4759;DHT22;2393;50.560;12.636;2023-07-29T05:20:15;19.80;99.90
4759;DHT22;2393;50.560;12.636;2023-07-29T05:22:43;20.20;99.90
4759;DHT22;2393;50.560;12.636;2023-07-29T05:25:12;20.50;99.90
4759;DHT22;2393;50.560;12.636;2023-07-29T05:27:43;20.60;99.90
4759;DHT22;2393;50.560;12.636;2023-07-29T05:30:11;20.80;99.90
4759;DHT22;2393;50.560;12.636;2023-07-29T05:32:39;21.10;99.90
4759;DHT22;2393;50.560;12.636;2023-07-29T05:35:07;21.20;99.90
4759;DHT22;2393;50.560;12.636;2023-07-29T05:37:39;21.30;99.90
4759;DHT22;2393;50.560;12.636;2023-07-29T05:40:08;21.50;99.90
4759;DHT22;2393;50.560;12.636;2023-07-29T05:42:37;21.60;99.90
4759;DHT22;2393;50.560;12.636;2023-07-29T05:45:07;21.70;99.90
4759;DHT22;2393;50.560;12.636;2023-07-29T05:47:35;21.90;99.90
4759;DHT22;2393;50.560;12.636;2023-07-29T05:50:04;22.20;99.90
4759;DHT22;2393;50.560;12.636;2023-07-29T05:52:33;22.30;99.90
4759;DHT22;2393;50.560;12.636;2023-07-29T05:55:03;22.50;99.90
4759;DHT22;2393;50.560;12.636;2023-07-29T05:57:31;22.60;99.90
4759;DHT22;2393;50.560;12.636;2023-07-29T06:00:00;22.60;99.90
4759;DHT22;2393;50.560;12.636;2023-07-29T06:02:28;22.70;99.90
4759;DHT22;2393;50.560;12.636;2023-07-29T06:04:56;22.80;99.90
4759;DHT22;2393;50.560;12.636;2023-07-29T06:07:26;23.00;99.90
4759;DHT22;2393;50.560;12.636;2023-07-29T06:09:56;23.20;99.90
4759;DHT22;2393;50.560;12.636;2023-07-29T06:12:26;23.30;99.90
4759;DHT22;2393;50.560;12.636;2023-07-29T06:14:54;23.30;99.90
4759;DHT22;2393;50.560;12.636;2023-07-29T06:17:22;23.30;99.90
4759;DHT22;2393;50.560;12.636;2023-07-29T06:19:51;23.40;99.90
4759;DHT22;2393;50.560;12.636;2023-07-29T06:22:19;23.50;99.90
4759;DHT22;2393;50.560;12.636;2023-07-29T06:24:47;23.80;99.90
4759;DHT22;2393;50.560;12.636;2023-07-29T06:27:15;24.00;99.90
4759;DHT22;2393;50.560;12.636;2023-07-29T06:29:45;24.00;99.90
4759;DHT22;2393;50.560;12.636;2023-07-29T06:32:13;23.90;99.90
4759;DHT22;2393;50.560;12.636;2023-07-29T06:34:41;23.80;99.90
4759;DHT22;2393;50.560;12.636;2023-07-29T06:37:09;23.60;99.90
4759;DHT22;2393;50.560;12.636;2023-07-29T06:39:37;23.50;99.90
4759;DHT22;2393;50.560;12.636;2023-07-29T06:42:06;23.20;99.90
4759;DHT22;2393;50.560;12.636;2023-07-29T06:44:35;23.10;99.90
4759;DHT22;2393;50.560;12.636;2023-07-29T06:47:05;22.80;99.90
4759;DHT22;2393;50.560;12.636;2023-07-29T06:49:33;22.60;99.90
4759;DHT22;2393;50.560;12.636;2023-07-29T06:52:01;22.70;99.90
4759;DHT22;2393;50.560;12.636;2023-07-29T06:54:29;22.90;99.90
4759;DHT22;2393;50.560;12.636;2023-07-29T06:56:57;23.30;99.90
4759;DHT22;2393;50.560;12.636;2023-07-29T06:59:26;23.50;99.90
4759;DHT22;2393;50.560;12.636;2023-07-29T07:01:54;23.60;99.90
4759;DHT22;2393;50.560;12.636;2023-07-29T07:04:24;23.80;99.90
4759;DHT22;2393;50.560;12.636;2023-07-29T07:06:52;24.00;99.90
4759;DHT22;2393;50.560;12.636;2023-07-29T07:09:20;24.30;99.90
4759;DHT22;2393;50.560;12.636;2023-07-29T07:11:48;24.30;99.90
4759;DHT22;2393;50.560;12.636;2023-07-29T07:14:16;24.50;99.90
4759;DHT22;2393;50.560;12.636;2023-07-29T07:16:45;24.80;99.90
4759;DHT22;2393;50.560;12.636;2023-07-29T07:19:13;24.80;99.90
4759;DHT22;2393;50.560;12.636;2023-07-29T07:21:42;24.70;99.90
4759;DHT22;2393;50.560;12.636;2023-07-29T07:24:10;24.60;99.90
4759;DHT22;2393;50.560;12.636;2023-07-29T07:26:38;24.60;99.90
4759;DHT22;2393;50.560;12.636;2023-07-29T07:29:07;24.60;99.90
4759;DHT22;2393;50.560;12.636;2023-07-29T07:31:35;24.50;99.90
4759;DHT22;2393;50.560;12.636;2023-07-29T07:34:03;24.30;99.90
4759;DHT22;2393;50.560;12.636;2023-07-29T07:36:31;24.10;99.90
4759;DHT22;2393;50.560;12.636;2023-07-29T07:39:00;24.10;99.90
4759;DHT22;2393;50.560;12.636;2023-07-29T07:41:28;24.20;99.90
4759;DHT22;2393;50.560;12.636;2023-07-29T07:43:57;24.20;99.90
4759;DHT22;2393;50.560;12.636;2023-07-29T07:46:25;24.10;99.90
4759;DHT22;2393;50.560;12.636;2023-07-29T07:48:53;24.00;99.90
4759;DHT22;2393;50.560;12.636;2023-07-29T07:51:21;24.00;99.90
4759;DHT22;2393;50.560;12.636;2023-07-29T07:53:49;23.70;99.90
4759;DHT22;2393;50.560;12.636;2023-07-29T07:56:19;23.80;99.90
4759;DHT22;2393;50.560;12.636;2023-07-29T07:58:50;23.90;99.90
4759;DHT22;2393;50.560;12.636;2023-07-29T08:01:19;24.00;99.90
4759;DHT22;2393;50.560;12.636;2023-07-29T08:03:47;24.20;99.90
4759;DHT22;2393;50.560;12.636;2023-07-29T08:06:16;24.30;99.90
4759;DHT22;2393;50.560;12.636;2023-07-29T08:08:44;24.50;99.90
4759;DHT22;2393;50.560;12.636;2023-07-29T08:11:12;24.50;99.90
4759;DHT22;2393;50.560;12.636;2023-07-29T08:13:42;24.60;99.90
4759;DHT22;2393;50.560;12.636;2023-07-29T08:16:10;24.60;99.90
4759;DHT22;2393;50.560;12.636;2023-07-29T08:18:38;24.40;99.90
4759;DHT22;2393;50.560;12.636;2023-07-29T08:21:07;24.30;99.90
4759;DHT22;2393;50.560;12.636;2023-07-29T08:23:36;24.40;99.90
4759;DHT22;2393;50.560;12.636;2023-07-29T08:26:06;24.60;99.90
4759;DHT22;2393;50.560;12.636;2023-07-29T08:28:36;24.90;99.90
4759;DHT22;2393;50.560;12.636;2023-07-29T08:31:06;25.20;99.90
4759;DHT22;2393;50.560;12.636;2023-07-29T08:33:34;25.20;99.90
4759;DHT22;2393;50.560;12.636;2023-07-29T08:36:03;25.10;99.90
4759;DHT22;2393;50.560;12.636;2023-07-29T08:38:31;25.00;99.90
4759;DHT22;2393;50.560;12.636;2023-07-29T08:41:13;25.00;99.90
4759;DHT22;2393;50.560;12.636;2023-07-29T08:43:50;24.80;99.90
4759;DHT22;2393;50.560;12.636;2023-07-29T08:46:20;24.60;99.90
4759;DHT22;2393;50.560;12.636;2023-07-29T08:48:49;24.50;99.90
4759;DHT22;2393;50.560;12.636;2023-07-29T08:51:17;24.30;99.90
4759;DHT22;2393;50.560;12.636;2023-07-29T08:53:47;24.20;99.90
4759;DHT22;2393;50.560;12.636;2023-07-29T08:56:16;24.00;99.90
4759;DHT22;2393;50.560;12.636;2023-07-29T08:58:44;23.80;99.90
4759;DHT22;2393;50.560;12.636;2023-07-29T09:01:14;23.70;99.90
4759;DHT22;2393;50.560;12.636;2023-07-29T09:03:44;23.50;99.90
4759;DHT22;2393;50.560;12.636;2023-07-29T09:06:14;23.40;99.90
4759;DHT22;2393;50.560;12.636;2023-07-29T09:08:43;23.40;99.90
4759;DHT22;2393;50.560;12.636;2023-07-29T09:11:15;23.20;99.90
4759;DHT22;2393;50.560;12.636;2023-07-29T09:13:44;23.00;99.90
4759;DHT22;2393;50.560;12.636;2023-07-29T09:16:13;22.90;99.90
4759;DHT22;2393;50.560;12.636;2023-07-29T09:18:41;22.70;99.90
4759;DHT22;2393;50.560;12.636;2023-07-29T09:21:11;22.60;99.90
4759;DHT22;2393;50.560;12.636;2023-07-29T09:23:40;22.50;99.90
4759;DHT22;2393;50.560;12.636;2023-07-29T09:26:09;22.40;99.90
4759;DHT22;2393;50.560;12.636;2023-07-29T09:28:39;22.10;99.90
4759;DHT22;2393;50.560;12.636;2023-07-29T09:31:19;21.90;99.90
4759;DHT22;2393;50.560;12.636;2023-07-29T09:33:47;21.70;99.90
4759;DHT22;2393;50.560;12.636;2023-07-29T09:39:50;21.40;99.90
4759;DHT22;2393;50.560;12.636;2023-07-29T09:42:29;21.10;99.90
4759;DHT22;2393;50.560;12.636;2023-07-29T09:49:18;20.60;99.90
4759;DHT22;2393;50.560;12.636;2023-07-29T09:51:57;20.60;99.90
4759;DHT22;2393;50.560;12.636;2023-07-29T09:54:26;20.60;99.90
4759;DHT22;2393;50.560;12.636;2023-07-29T09:56:54;20.70;99.90
4759;DHT22;2393;50.560;12.636;2023-07-29T09:59:23;20.70;99.90
4759;DHT22;2393;50.560;12.636;2023-07-29T10:01:51;20.80;99.90
4759;DHT22;2393;50.560;12.636;2023-07-29T10:04:20;20.90;99.90
4759;DHT22;2393;50.560;12.636;2023-07-29T10:06:49;20.90;99.90
4759;DHT22;2393;50.560;12.636;2023-07-29T10:09:20;21.00;99.90
4759;DHT22;2393;50.560;12.636;2023-07-29T10:11:49;21.10;99.90
4759;DHT22;2393;50.560;12.636;2023-07-29T10:14:20;21.40;99.90
4759;DHT22;2393;50.560;12.636;2023-07-29T10:16:49;21.80;99.90
4759;DHT22;2393;50.560;12.636;2023-07-29T10:19:18;21.90;99.90
4759;DHT22;2393;50.560;12.636;2023-07-29T10:21:48;22.10;99.90
4759;DHT22;2393;50.560;12.636;2023-07-29T10:24:19;22.20;99.90
4759;DHT22;2393;50.560;12.636;2023-07-29T10:26:57;22.30;99.90
4759;DHT22;2393;50.560;12.636;2023-07-29T10:29:30;22.40;99.90
4759;DHT22;2393;50.560;12.636;2023-07-29T10:32:01;22.30;99.90
4759;DHT22;2393;50.560;12.636;2023-07-29T10:34:31;22.30;99.90
4759;DHT22;2393;50.560;12.636;2023-07-29T10:37:00;22.20;99.90
4759;DHT22;2393;50.560;12.636;2023-07-29T10:39:37;22.20;99.90
4759;DHT22;2393;50.560;12.636;2023-07-29T10:42:07;22.10;99.90
4759;DHT22;2393;50.560;12.636;2023-07-29T10:44:51;22.20;99.90
4759;DHT22;2393;50.560;12.636;2023-07-29T10:47:21;22.10;99.90
4759;DHT22;2393;50.560;12.636;2023-07-29T10:49:52;21.90;99.90
4759;DHT22;2393;50.560;12.636;2023-07-29T10:52:30;21.90;99.90
4759;DHT22;2393;50.560;12.636;2023-07-29T10:55:00;21.90;99.90
4759;DHT22;2393;50.560;12.636;2023-07-29T10:57:33;21.90;99.90
4759;DHT22;2393;50.560;12.636;2023-07-29T11:00:08;21.80;99.90
4759;DHT22;2393;50.560;12.636;2023-07-29T11:02:38;21.90;99.90
4759;DHT22;2393;50.560;12.636;2023-07-29T11:05:08;21.90;99.90
4759;DHT22;2393;50.560;12.636;2023-07-29T11:07:44;22.10;99.90
4759;DHT22;2393;50.560;12.636;2023-07-29T11:10:14;22.10;99.90
4759;DHT22;2393;50.560;12.636;2023-07-29T11:12:44;22.20;99.90
4759;DHT22;2393;50.560;12.636;2023-07-29T11:15:20;22.10;99.90
4759;DHT22;2393;50.560;12.636;2023-07-29T11:17:50;22.00;99.90
4759;DHT22;2393;50.560;12.636;2023-07-29T11:20:20;21.90;99.90
4759;DHT22;2393;50.560;12.636;2023-07-29T11:22:49;21.80;99.90
4759;DHT22;2393;50.560;12.636;2023-07-29T11:25:19;21.70;99.90
4759;DHT22;2393;50.560;12.636;2023-07-29T11:27:47;21.60;99.90
4759;DHT22;2393;50.560;12.636;2023-07-29T11:30:16;21.60;99.90
4759;DHT22;2393;50.560;12.636;2023-07-29T11:32:45;21.50;99.90
4759;DHT22;2393;50.560;12.636;2023-07-29T11:35:15;21.40;99.90
4759;DHT22;2393;50.560;12.636;2023-07-29T11:37:45;21.00;99.90
4759;DHT22;2393;50.560;12.636;2023-07-29T11:40:15;20.90;99.90
4759;DHT22;2393;50.560;12.636;2023-07-29T11:42:45;20.70;99.90
4759;DHT22;2393;50.560;12.636;2023-07-29T11:45:14;20.50;99.90
4759;DHT22;2393;50.560;12.636;2023-07-29T11:47:44;20.40;99.90
4759;DHT22;2393;50.560;12.636;2023-07-29T11:50:14;20.20;99.90
4759;DHT22;2393;50.560;12.636;2023-07-29T11:52:43;20.10;99.90
4759;DHT22;2393;50.560;12.636;2023-07-29T11:55:13;20.00;99.90
4759;DHT22;2393;50.560;12.636;2023-07-29T11:57:44;20.00;99.90
4759;DHT22;2393;50.560;12.636;2023-07-29T12:00:12;20.00;99.90
4759;DHT22;2393;50.560;12.636;2023-07-29T12:02:45;20.00;99.90
4759;DHT22;2393;50.560;12.636;2023-07-29T12:05:14;20.00;99.90
4759;DHT22;2393;50.560;12.636;2023-07-29T12:07:44;20.10;99.90
4759;DHT22;2393;50.560;12.636;2023-07-29T12:10:15;20.10;99.90
4759;DHT22;2393;50.560;12.636;2023-07-29T12:12:49;20.10;99.90
4759;DHT22;2393;50.560;12.636;2023-07-29T12:15:25;20.10;99.90
4759;DHT22;2393;50.560;12.636;2023-07-29T12:17:55;20.20;99.90
4759;DHT22;2393;50.560;12.636;2023-07-29T12:20:25;20.30;99.90
4759;DHT22;2393;50.560;12.636;2023-07-29T12:22:54;20.50;99.90
4759;DHT22;2393;50.560;12.636;2023-07-29T12:25:24;20.70;99.90
4759;DHT22;2393;50.560;12.636;2023-07-29T12:27:57;20.90;99.90
4759;DHT22;2393;50.560;12.636;2023-07-29T12:30:34;21.30;99.90
4759;DHT22;2393;50.560;12.636;2023-07-29T12:33:02;21.60;99.90
4759;DHT22;2393;50.560;12.636;2023-07-29T12:35:36;21.90;99.90
4759;DHT22;2393;50.560;12.636;2023-07-29T12:38:06;22.40;99.90
4759;DHT22;2393;50.560;12.636;2023-07-29T12:40:38;22.70;99.90
4759;DHT22;2393;50.560;12.636;2023-07-29T12:43:08;23.10;99.90
4759;DHT22;2393;50.560;12.636;2023-07-29T12:45:46;23.50;99.90
4759;DHT22;2393;50.560;12.636;2023-07-29T12:48:16;23.90;99.90
4759;DHT22;2393;50.560;12.636;2023-07-29T12:50:58;24.10;99.90
4759;DHT22;2393;50.560;12.636;2023-07-29T12:53:27;24.00;99.90
4759;DHT22;2393;50.560;12.636;2023-07-29T12:55:55;23.90;99.90
4759;DHT22;2393;50.560;12.636;2023-07-29T12:58:29;23.70;99.90
4759;DHT22;2393;50.560;12.636;2023-07-29T13:00:57;23.50;99.90
4759;DHT22;2393;50.560;12.636;2023-07-29T13:03:28;23.30;99.90
4759;DHT22;2393;50.560;12.636;2023-07-29T13:05:56;23.10;99.90
4759;DHT22;2393;50.560;12.636;2023-07-29T13:08:25;23.10;99.90
4759;DHT22;2393;50.560;12.636;2023-07-29T13:10:53;23.00;99.90
4759;DHT22;2393;50.560;12.636;2023-07-29T13:13:21;22.90;99.90
4759;DHT22;2393;50.560;12.636;2023-07-29T13:15:51;23.20;99.90
4759;DHT22;2393;50.560;12.636;2023-07-29T13:18:20;23.40;99.90
4759;DHT22;2393;50.560;12.636;2023-07-29T13:20:48;23.40;99.90
4759;DHT22;2393;50.560;12.636;2023-07-29T13:23:17;23.60;99.90
4759;DHT22;2393;50.560;12.636;2023-07-29T13:25:45;23.70;99.90
4759;DHT22;2393;50.560;12.636;2023-07-29T13:28:13;23.90;99.90
4759;DHT22;2393;50.560;12.636;2023-07-29T13:30:42;24.10;99.90
4759;DHT22;2393;50.560;12.636;2023-07-29T13:33:12;24.20;99.90
4759;DHT22;2393;50.560;12.636;2023-07-29T13:35:40;24.30;99.90
4759;DHT22;2393;50.560;12.636;2023-07-29T13:38:08;24.60;99.90
4759;DHT22;2393;50.560;12.636;2023-07-29T13:40:38;24.70;99.90
4759;DHT22;2393;50.560;12.636;2023-07-29T13:43:07;24.80;99.90
4759;DHT22;2393;50.560;12.636;2023-07-29T13:45:35;24.80;99.90
4759;DHT22;2393;50.560;12.636;2023-07-29T13:48:04;24.90;99.90
4759;DHT22;2393;50.560;12.636;2023-07-29T13:50:33;25.00;99.90
4759;DHT22;2393;50.560;12.636;2023-07-29T13:53:02;25.00;99.90
4759;DHT22;2393;50.560;12.636;2023-07-29T13:55:30;25.10;99.90
4759;DHT22;2393;50.560;12.636;2023-07-29T13:57:58;25.20;99.90
4759;DHT22;2393;50.560;12.636;2023-07-29T14:00:26;25.30;99.90
4759;DHT22;2393;50.560;12.636;2023-07-29T14:02:54;25.40;99.90
4759;DHT22;2393;50.560;12.636;2023-07-29T14:05:23;25.50;99.90
4759;DHT22;2393;50.560;12.636;2023-07-29T14:07:52;25.60;99.90
4759;DHT22;2393;50.560;12.636;2023-07-29T14:10:20;25.60;99.90
4759;DHT22;2393;50.560;12.636;2023-07-29T14:12:48;25.60;99.90
4759;DHT22;2393;50.560;12.636;2023-07-29T14:15:17;25.60;99.90
4759;DHT22;2393;50.560;12.636;2023-07-29T14:17:45;25.60;99.90
4759;DHT22;2393;50.560;12.636;2023-07-29T14:20:13;25.70;99.90
4759;DHT22;2393;50.560;12.636;2023-07-29T14:22:42;25.80;99.90
4759;DHT22;2393;50.560;12.636;2023-07-29T14:25:11;25.80;99.90
4759;DHT22;2393;50.560;12.636;2023-07-29T14:27:40;25.90;99.90
4759;DHT22;2393;50.560;12.636;2023-07-29T14:30:09;25.90;99.90
4759;DHT22;2393;50.560;12.636;2023-07-29T14:32:37;26.10;99.90
4759;DHT22;2393;50.560;12.636;2023-07-29T14:35:06;25.90;99.90
4759;DHT22;2393;50.560;12.636;2023-07-29T14:37:35;25.90;99.90
4759;DHT22;2393;50.560;12.636;2023-07-29T14:40:05;25.80;99.90
4759;DHT22;2393;50.560;12.636;2023-07-29T14:42:35;26.00;99.90
4759;DHT22;2393;50.560;12.636;2023-07-29T14:45:05;26.10;99.90
4759;DHT22;2393;50.560;12.636;2023-07-29T14:47:33;26.20;99.90
4759;DHT22;2393;50.560;12.636;2023-07-29T14:50:03;26.30;99.90
4759;DHT22;2393;50.560;12.636;2023-07-29T14:52:31;26.20;99.90
4759;DHT22;2393;50.560;12.636;2023-07-29T14:54:59;26.10;99.90
4759;DHT22;2393;50.560;12.636;2023-07-29T14:57:27;26.10;99.90
4759;DHT22;2393;50.560;12.636;2023-07-29T14:59:56;26.10;99.90
4759;DHT22;2393;50.560;12.636;2023-07-29T15:02:25;25.90;99.90
4759;DHT22;2393;50.560;12.636;2023-07-29T15:04:53;25.70;99.90
4759;DHT22;2393;50.560;12.636;2023-07-29T15:07:22;25.60;99.90
4759;DHT22;2393;50.560;12.636;2023-07-29T15:09:50;25.70;99.90
4759;DHT22;2393;50.560;12.636;2023-07-29T15:12:19;25.70;99.90
4759;DHT22;2393;50.560;12.636;2023-07-29T15:14:47;25.70;99.90
4759;DHT22;2393;50.560;12.636;2023-07-29T15:17:16;25.70;99.90
4759;DHT22;2393;50.560;12.636;2023-07-29T15:19:44;25.70;99.90
4759;DHT22;2393;50.560;12.636;2023-07-29T15:22:16;25.80;99.90
4759;DHT22;2393;50.560;12.636;2023-07-29T15:24:44;25.70;99.90
4759;DHT22;2393;50.560;12.636;2023-07-29T15:27:13;25.80;99.90
4759;DHT22;2393;50.560;12.636;2023-07-29T15:29:41;25.90;99.90
4759;DHT22;2393;50.560;12.636;2023-07-29T15:32:09;26.00;99.90
4759;DHT22;2393;50.560;12.636;2023-07-29T15:34:39;25.90;99.90
4759;DHT22;2393;50.560;12.636;2023-07-29T15:37:07;25.70;99.90
4759;DHT22;2393;50.560;12.636;2023-07-29T15:39:35;25.50;99.90
4759;DHT22;2393;50.560;12.636;2023-07-29T15:42:06;25.20;99.90
4759;DHT22;2393;50.560;12.636;2023-07-29T15:44:34;25.00;99.90
4759;DHT22;2393;50.560;12.636;2023-07-29T15:47:04;24.90;99.90
4759;DHT22;2393;50.560;12.636;2023-07-29T15:49:32;24.80;99.90
4759;DHT22;2393;50.560;12.636;2023-07-29T15:52:02;24.70;99.90
4759;DHT22;2393;50.560;12.636;2023-07-29T15:54:30;24.60;99.90
4759;DHT22;2393;50.560;12.636;2023-07-29T15:56:58;24.40;99.90
4759;DHT22;2393;50.560;12.636;2023-07-29T15:59:26;24.40;99.90
4759;DHT22;2393;50.560;12.636;2023-07-29T16:01:54;24.30;99.90
4759;DHT22;2393;50.560;12.636;2023-07-29T16:04:22;24.20;99.90
4759;DHT22;2393;50.560;12.636;2023-07-29T16:06:50;24.20;99.90